sensor_id;sensor_type;location;lat;lon;timestamp;P1;durP1;ratioP1;P2;durP2;ratioP2
8040;SDS011;4063;48.140;10.250;2023-05-14T00:00:36;9.50;;;8.80;;
8040;SDS011;4063;48.140;10.250;2023-05-14T00:03:03;10.70;;;9.70;;
8040;SDS011;4063;48.140;10.250;2023-05-14T00:05:29;11.27;;;10.13;;
8040;SDS011;4063;48.140;10.250;2023-05-14T00:07:55;10.50;;;9.50;;
8040;SDS011;4063;48.140;10.250;2023-05-14T00:10:21;10.17;;;9.27;;
8040;SDS011;4063;48.140;10.250;2023-05-14T00:12:47;10.87;;;9.77;;
8040;SDS011;4063;48.140;10.250;2023-05-14T00:15:13;11.00;;;9.83;;
8040;SDS011;4063;48.140;10.250;2023-05-14T00:17:39;11.07;;;10.07;;
8040;SDS011;4063;48.140;10.250;2023-05-14T00:20:06;10.47;;;9.37;;
8040;SDS011;4063;48.140;10.250;2023-05-14T00:22:32;10.30;;;9.40;;
8040;SDS011;4063;48.140;10.250;2023-05-14T00:24:58;10.40;;;9.37;;
8040;SDS011;4063;48.140;10.250;2023-05-14T00:27:25;11.73;;;9.73;;
8040;SDS011;4063;48.140;10.250;2023-05-14T00:29:50;12.37;;;10.10;;
8040;SDS011;4063;48.140;10.250;2023-05-14T00:32:16;11.57;;;10.40;;
8040;SDS011;4063;48.140;10.250;2023-05-14T00:34:42;12.63;;;9.87;;
8040;SDS011;4063;48.140;10.250;2023-05-14T00:37:08;14.37;;;10.50;;
8040;SDS011;4063;48.140;10.250;2023-05-14T00:39:34;12.07;;;10.80;;
8040;SDS011;4063;48.140;10.250;2023-05-14T00:42:00;10.63;;;9.63;;
8040;SDS011;4063;48.140;10.250;2023-05-14T00:44:26;10.97;;;9.90;;
8040;SDS011;4063;48.140;10.250;2023-05-14T00:46:52;13.03;;;10.77;;
8040;SDS011;4063;48.140;10.250;2023-05-14T00:49:18;11.70;;;10.50;;
8040;SDS011;4063;48.140;10.250;2023-05-14T00:51:45;10.43;;;9.47;;
8040;SDS011;4063;48.140;10.250;2023-05-14T00:54:15;11.70;;;10.50;;
8040;SDS011;4063;48.140;10.250;2023-05-14T00:56:44;11.00;;;9.80;;
8040;SDS011;4063;48.140;10.250;2023-05-14T00:59:11;11.33;;;10.33;;
8040;SDS011;4063;48.140;10.250;2023-05-14T01:01:37;11.57;;;10.63;;
8040;SDS011;4063;48.140;10.250;2023-05-14T01:04:03;11.70;;;10.60;;
8040;SDS011;4063;48.140;10.250;2023-05-14T01:11:53;10.87;;;9.77;;
8040;SDS011;4063;48.140;10.250;2023-05-14T01:14:33;11.37;;;10.27;;
8040;SDS011;4063;48.140;10.250;2023-05-14T01:17:01;11.13;;;10.03;;
8040;SDS011;4063;48.140;10.250;2023-05-14T01:22:03;11.40;;;10.20;;
8040;SDS011;4063;48.140;10.250;2023-05-14T01:24:30;12.13;;;10.90;;
8040;SDS011;4063;48.140;10.250;2023-05-14T01:26:57;11.90;;;10.75;;
8040;SDS011;4063;48.140;10.250;2023-05-14T01:29:26;12.53;;;11.20;;
8040;SDS011;4063;48.140;10.250;2023-05-14T01:31:52;12.43;;;11.30;;
8040;SDS011;4063;48.140;10.250;2023-05-14T01:34:21;12.10;;;11.00;;
8040;SDS011;4063;48.140;10.250;2023-05-14T01:36:47;12.07;;;10.97;;
8040;SDS011;4063;48.140;10.250;2023-05-14T01:39:13;12.63;;;10.93;;
8040;SDS011;4063;48.140;10.250;2023-05-14T01:41:39;11.53;;;10.33;;
8040;SDS011;4063;48.140;10.250;2023-05-14T01:44:09;12.57;;;11.37;;
8040;SDS011;4063;48.140;10.250;2023-05-14T01:46:35;12.03;;;10.83;;
8040;SDS011;4063;48.140;10.250;2023-05-14T01:49:01;12.87;;;11.53;;
8040;SDS011;4063;48.140;10.250;2023-05-14T01:51:27;12.20;;;10.90;;
8040;SDS011;4063;48.140;10.250;2023-05-14T01:53:53;11.97;;;10.87;;
8040;SDS011;4063;48.140;10.250;2023-05-14T01:56:20;12.20;;;11.10;;
8040;SDS011;4063;48.140;10.250;2023-05-14T01:58:47;12.17;;;10.97;;
8040;SDS011;4063;48.140;10.250;2023-05-14T02:01:13;12.70;;;11.60;;
8040;SDS011;4063;48.140;10.250;2023-05-14T02:03:39;13.90;;;12.60;;
8040;SDS011;4063;48.140;10.250;2023-05-14T02:06:05;15.03;;;12.57;;
8040;SDS011;4063;48.140;10.250;2023-05-14T02:08:31;14.10;;;12.73;;
8040;SDS011;4063;48.140;10.250;2023-05-14T02:10:57;15.33;;;13.73;;
8040;SDS011;4063;48.140;10.250;2023-05-14T02:13:23;15.80;;;13.30;;
8040;SDS011;4063;48.140;10.250;2023-05-14T02:15:50;15.30;;;13.70;;
8040;SDS011;4063;48.140;10.250;2023-05-14T02:18:16;14.70;;;13.20;;
8040;SDS011;4063;48.140;10.250;2023-05-14T02:20:42;16.27;;;14.60;;
8040;SDS011;4063;48.140;10.250;2023-05-14T02:23:08;17.47;;;15.57;;
8040;SDS011;4063;48.140;10.250;2023-05-14T02:25:34;16.63;;;14.93;;
8040;SDS011;4063;48.140;10.250;2023-05-14T02:28:00;17.43;;;15.50;;
8040;SDS011;4063;48.140;10.250;2023-05-14T02:30:26;18.50;;;15.80;;
8040;SDS011;4063;48.140;10.250;2023-05-14T02:32:53;17.17;;;15.37;;
8040;SDS011;4063;48.140;10.250;2023-05-14T02:35:19;17.20;;;15.40;;
8040;SDS011;4063;48.140;10.250;2023-05-14T02:37:45;19.03;;;16.27;;
8040;SDS011;4063;48.140;10.250;2023-05-14T02:40:11;18.17;;;15.50;;
8040;SDS011;4063;48.140;10.250;2023-05-14T02:42:38;18.37;;;16.50;;
8040;SDS011;4063;48.140;10.250;2023-05-14T02:45:04;17.57;;;15.87;;
8040;SDS011;4063;48.140;10.250;2023-05-14T02:47:30;18.40;;;16.43;;
8040;SDS011;4063;48.140;10.250;2023-05-14T02:49:56;18.07;;;16.37;;
8040;SDS011;4063;48.140;10.250;2023-05-14T02:52:22;18.93;;;16.93;;
8040;SDS011;4063;48.140;10.250;2023-05-14T02:54:48;18.57;;;16.63;;
8040;SDS011;4063;48.140;10.250;2023-05-14T02:57:14;19.00;;;17.10;;
8040;SDS011;4063;48.140;10.250;2023-05-14T02:59:40;20.00;;;16.97;;
8040;SDS011;4063;48.140;10.250;2023-05-14T03:02:06;18.57;;;16.57;;
8040;SDS011;4063;48.140;10.250;2023-05-14T03:04:32;18.43;;;16.43;;
8040;SDS011;4063;48.140;10.250;2023-05-14T03:06:58;19.57;;;17.57;;
8040;SDS011;4063;48.140;10.250;2023-05-14T03:09:24;20.00;;;17.73;;
8040;SDS011;4063;48.140;10.250;2023-05-14T03:11:50;19.83;;;17.80;;
8040;SDS011;4063;48.140;10.250;2023-05-14T03:14:16;19.00;;;17.00;;
8040;SDS011;4063;48.140;10.250;2023-05-14T03:16:42;19.80;;;17.80;;
8040;SDS011;4063;48.140;10.250;2023-05-14T03:19:08;20.43;;;18.20;;
8040;SDS011;4063;48.140;10.250;2023-05-14T03:21:34;20.63;;;18.43;;
8040;SDS011;4063;48.140;10.250;2023-05-14T03:24:00;21.07;;;18.67;;
8040;SDS011;4063;48.140;10.250;2023-05-14T03:26:26;19.53;;;17.27;;
8040;SDS011;4063;48.140;10.250;2023-05-14T03:28:53;21.33;;;19.03;;
8040;SDS011;4063;48.140;10.250;2023-05-14T03:31:19;21.97;;;19.37;;
8040;SDS011;4063;48.140;10.250;2023-05-14T03:33:45;20.50;;;18.53;;
8040;SDS011;4063;48.140;10.250;2023-05-14T03:36:11;20.10;;;18.10;;
8040;SDS011;4063;48.140;10.250;2023-05-14T03:38:37;22.07;;;18.73;;
8040;SDS011;4063;48.140;10.250;2023-05-14T03:41:03;21.73;;;19.30;;
8040;SDS011;4063;48.140;10.250;2023-05-14T03:43:29;19.17;;;17.20;;
8040;SDS011;4063;48.140;10.250;2023-05-14T03:45:55;19.77;;;17.67;;
8040;SDS011;4063;48.140;10.250;2023-05-14T03:48:21;20.93;;;17.63;;
8040;SDS011;4063;48.140;10.250;2023-05-14T03:50:47;21.20;;;18.73;;
8040;SDS011;4063;48.140;10.250;2023-05-14T03:53:13;20.47;;;18.23;;
8040;SDS011;4063;48.140;10.250;2023-05-14T03:55:39;21.30;;;19.13;;
8040;SDS011;4063;48.140;10.250;2023-05-14T03:58:06;22.23;;;18.50;;
8040;SDS011;4063;48.140;10.250;2023-05-14T04:00:38;23.00;;;20.60;;
8040;SDS011;4063;48.140;10.250;2023-05-14T04:03:04;23.37;;;21.03;;
8040;SDS011;4063;48.140;10.250;2023-05-14T04:05:30;29.17;;;25.47;;
8040;SDS011;4063;48.140;10.250;2023-05-14T04:07:55;29.93;;;27.00;;
8040;SDS011;4063;48.140;10.250;2023-05-14T04:10:22;24.13;;;21.37;;
8040;SDS011;4063;48.140;10.250;2023-05-14T04:12:48;23.37;;;20.87;;
8040;SDS011;4063;48.140;10.250;2023-05-14T04:15:14;21.63;;;19.43;;
8040;SDS011;4063;48.140;10.250;2023-05-14T04:17:40;21.90;;;19.63;;
8040;SDS011;4063;48.140;10.250;2023-05-14T04:20:06;24.37;;;19.83;;
8040;SDS011;4063;48.140;10.250;2023-05-14T04:22:32;21.60;;;19.23;;
8040;SDS011;4063;48.140;10.250;2023-05-14T04:24:58;21.33;;;19.17;;
8040;SDS011;4063;48.140;10.250;2023-05-14T04:27:24;21.37;;;19.27;;
8040;SDS011;4063;48.140;10.250;2023-05-14T04:29:50;22.67;;;19.43;;
8040;SDS011;4063;48.140;10.250;2023-05-14T04:32:16;22.67;;;20.27;;
8040;SDS011;4063;48.140;10.250;2023-05-14T04:34:42;21.70;;;19.50;;
8040;SDS011;4063;48.140;10.250;2023-05-14T04:37:08;22.20;;;19.10;;
8040;SDS011;4063;48.140;10.250;2023-05-14T04:39:34;22.30;;;19.93;;
8040;SDS011;4063;48.140;10.250;2023-05-14T04:42:00;21.23;;;18.97;;
8040;SDS011;4063;48.140;10.250;2023-05-14T04:44:26;23.17;;;20.70;;
8040;SDS011;4063;48.140;10.250;2023-05-14T04:46:52;23.33;;;21.10;;
8040;SDS011;4063;48.140;10.250;2023-05-14T04:49:18;24.80;;;20.30;;
8040;SDS011;4063;48.140;10.250;2023-05-14T04:51:44;21.88;;;19.60;;
8040;SDS011;4063;48.140;10.250;2023-05-14T04:54:12;20.07;;;18.07;;
8040;SDS011;4063;48.140;10.250;2023-05-14T04:56:38;22.77;;;19.57;;
8040;SDS011;4063;48.140;10.250;2023-05-14T04:59:03;20.77;;;18.63;;
8040;SDS011;4063;48.140;10.250;2023-05-14T05:01:30;21.45;;;19.33;;
8040;SDS011;4063;48.140;10.250;2023-05-14T05:03:56;23.30;;;21.00;;
8040;SDS011;4063;48.140;10.250;2023-05-14T05:06:22;21.00;;;18.87;;
8040;SDS011;4063;48.140;10.250;2023-05-14T05:08:48;23.30;;;21.00;;
8040;SDS011;4063;48.140;10.250;2023-05-14T05:11:14;22.43;;;20.10;;
8040;SDS011;4063;48.140;10.250;2023-05-14T05:13:40;23.57;;;21.10;;
8040;SDS011;4063;48.140;10.250;2023-05-14T05:16:06;22.23;;;19.85;;
8040;SDS011;4063;48.140;10.250;2023-05-14T05:18:32;20.98;;;18.88;;
8040;SDS011;4063;48.140;10.250;2023-05-14T05:20:58;22.73;;;20.33;;
8040;SDS011;4063;48.140;10.250;2023-05-14T05:23:24;20.48;;;17.92;;
8040;SDS011;4063;48.140;10.250;2023-05-14T05:25:50;35.25;;;31.67;;
8040;SDS011;4063;48.140;10.250;2023-05-14T05:28:16;29.65;;;26.48;;
8040;SDS011;4063;48.140;10.250;2023-05-14T05:30:42;25.85;;;23.15;;
8040;SDS011;4063;48.140;10.250;2023-05-14T05:33:09;25.33;;;22.77;;
8040;SDS011;4063;48.140;10.250;2023-05-14T05:35:35;19.58;;;17.67;;
8040;SDS011;4063;48.140;10.250;2023-05-14T05:38:01;20.77;;;18.55;;
8040;SDS011;4063;48.140;10.250;2023-05-14T05:40:27;25.23;;;22.67;;
8040;SDS011;4063;48.140;10.250;2023-05-14T05:42:53;19.50;;;17.60;;
8040;SDS011;4063;48.140;10.250;2023-05-14T05:45:19;20.35;;;17.48;;
8040;SDS011;4063;48.140;10.250;2023-05-14T05:47:45;19.17;;;16.83;;
8040;SDS011;4063;48.140;10.250;2023-05-14T05:50:11;49.35;;;38.17;;
8040;SDS011;4063;48.140;10.250;2023-05-14T05:52:37;24.93;;;21.40;;
8040;SDS011;4063;48.140;10.250;2023-05-14T05:55:04;38.28;;;33.67;;
8040;SDS011;4063;48.140;10.250;2023-05-14T05:57:30;31.88;;;28.50;;
8040;SDS011;4063;48.140;10.250;2023-05-14T05:59:56;44.53;;;34.58;;
8040;SDS011;4063;48.140;10.250;2023-05-14T06:02:22;45.17;;;38.88;;
8040;SDS011;4063;48.140;10.250;2023-05-14T06:04:49;35.25;;;31.15;;
8040;SDS011;4063;48.140;10.250;2023-05-14T06:07:15;31.30;;;27.48;;
8040;SDS011;4063;48.140;10.250;2023-05-14T06:09:41;26.10;;;23.30;;
8040;SDS011;4063;48.140;10.250;2023-05-14T06:12:07;26.60;;;23.10;;
8040;SDS011;4063;48.140;10.250;2023-05-14T06:14:33;22.95;;;20.45;;
8040;SDS011;4063;48.140;10.250;2023-05-14T06:16:59;52.60;;;37.83;;
8040;SDS011;4063;48.140;10.250;2023-05-14T06:19:25;28.23;;;25.27;;
8040;SDS011;4063;48.140;10.250;2023-05-14T06:21:51;46.47;;;31.60;;
8040;SDS011;4063;48.140;10.250;2023-05-14T06:24:17;26.20;;;21.40;;
8040;SDS011;4063;48.140;10.250;2023-05-14T06:26:44;20.20;;;16.85;;
8040;SDS011;4063;48.140;10.250;2023-05-14T06:29:10;16.55;;;14.93;;
8040;SDS011;4063;48.140;10.250;2023-05-14T06:31:36;17.25;;;15.40;;
8040;SDS011;4063;48.140;10.250;2023-05-14T06:34:02;17.08;;;15.27;;
8040;SDS011;4063;48.140;10.250;2023-05-14T06:36:28;15.60;;;14.00;;
8040;SDS011;4063;48.140;10.250;2023-05-14T06:38:53;15.43;;;13.93;;
8040;SDS011;4063;48.140;10.250;2023-05-14T06:41:19;16.00;;;14.43;;
8040;SDS011;4063;48.140;10.250;2023-05-14T06:43:45;17.10;;;15.43;;
8040;SDS011;4063;48.140;10.250;2023-05-14T06:46:11;16.08;;;14.52;;
8040;SDS011;4063;48.140;10.250;2023-05-14T06:48:37;16.37;;;14.83;;
8040;SDS011;4063;48.140;10.250;2023-05-14T06:51:03;16.35;;;14.75;;
8040;SDS011;4063;48.140;10.250;2023-05-14T06:53:30;14.60;;;13.20;;
8040;SDS011;4063;48.140;10.250;2023-05-14T06:55:56;14.07;;;12.77;;
8040;SDS011;4063;48.140;10.250;2023-05-14T06:58:22;14.88;;;13.35;;
8040;SDS011;4063;48.140;10.250;2023-05-14T07:00:48;14.48;;;13.07;;
8040;SDS011;4063;48.140;10.250;2023-05-14T07:03:14;14.40;;;13.10;;
8040;SDS011;4063;48.140;10.250;2023-05-14T07:05:40;15.70;;;14.20;;
8040;SDS011;4063;48.140;10.250;2023-05-14T07:08:06;14.68;;;13.15;;
8040;SDS011;4063;48.140;10.250;2023-05-14T07:10:32;17.00;;;14.30;;
8040;SDS011;4063;48.140;10.250;2023-05-14T07:12:58;14.02;;;12.63;;
8040;SDS011;4063;48.140;10.250;2023-05-14T07:15:24;14.70;;;13.38;;
8040;SDS011;4063;48.140;10.250;2023-05-14T07:17:50;14.35;;;12.95;;
8040;SDS011;4063;48.140;10.250;2023-05-14T07:20:16;13.07;;;11.77;;
8040;SDS011;4063;48.140;10.250;2023-05-14T07:22:41;14.02;;;12.63;;
8040;SDS011;4063;48.140;10.250;2023-05-14T07:25:07;15.63;;;13.63;;
8040;SDS011;4063;48.140;10.250;2023-05-14T07:27:33;14.57;;;13.05;;
8040;SDS011;4063;48.140;10.250;2023-05-14T07:29:59;15.63;;;13.73;;
8040;SDS011;4063;48.140;10.250;2023-05-14T07:32:25;14.60;;;13.20;;
8040;SDS011;4063;48.140;10.250;2023-05-14T07:34:51;14.13;;;12.82;;
8040;SDS011;4063;48.140;10.250;2023-05-14T07:37:17;12.40;;;11.20;;
8040;SDS011;4063;48.140;10.250;2023-05-14T07:39:43;14.80;;;13.40;;
8040;SDS011;4063;48.140;10.250;2023-05-14T07:42:09;13.88;;;12.57;;
8040;SDS011;4063;48.140;10.250;2023-05-14T07:44:35;14.60;;;12.95;;
8040;SDS011;4063;48.140;10.250;2023-05-14T07:47:01;14.38;;;12.82;;
8040;SDS011;4063;48.140;10.250;2023-05-14T07:49:28;14.43;;;13.02;;
8040;SDS011;4063;48.140;10.250;2023-05-14T07:51:54;14.63;;;13.13;;
8040;SDS011;4063;48.140;10.250;2023-05-14T07:54:20;15.65;;;14.07;;
8040;SDS011;4063;48.140;10.250;2023-05-14T07:56:45;16.02;;;14.35;;
8040;SDS011;4063;48.140;10.250;2023-05-14T07:59:11;17.50;;;15.77;;
8040;SDS011;4063;48.140;10.250;2023-05-14T08:01:37;16.45;;;14.77;;
8040;SDS011;4063;48.140;10.250;2023-05-14T08:04:03;16.30;;;14.68;;
8040;SDS011;4063;48.140;10.250;2023-05-14T08:06:29;16.13;;;14.60;;
8040;SDS011;4063;48.140;10.250;2023-05-14T08:08:55;16.63;;;14.82;;
8040;SDS011;4063;48.140;10.250;2023-05-14T08:11:21;15.45;;;14.00;;
8040;SDS011;4063;48.140;10.250;2023-05-14T08:13:47;16.38;;;14.63;;
8040;SDS011;4063;48.140;10.250;2023-05-14T08:16:13;15.35;;;13.85;;
8040;SDS011;4063;48.140;10.250;2023-05-14T08:18:39;15.88;;;14.20;;
8040;SDS011;4063;48.140;10.250;2023-05-14T08:21:05;14.85;;;13.45;;
8040;SDS011;4063;48.140;10.250;2023-05-14T08:23:31;16.33;;;14.25;;
8040;SDS011;4063;48.140;10.250;2023-05-14T08:25:57;14.90;;;13.50;;
8040;SDS011;4063;48.140;10.250;2023-05-14T08:28:23;15.52;;;14.02;;
8040;SDS011;4063;48.140;10.250;2023-05-14T08:30:49;16.33;;;14.27;;
8040;SDS011;4063;48.140;10.250;2023-05-14T08:33:15;16.02;;;14.40;;
8040;SDS011;4063;48.140;10.250;2023-05-14T08:35:42;17.40;;;14.45;;
8040;SDS011;4063;48.140;10.250;2023-05-14T08:38:08;19.08;;;16.05;;
8040;SDS011;4063;48.140;10.250;2023-05-14T08:40:34;17.25;;;15.45;;
8040;SDS011;4063;48.140;10.250;2023-05-14T08:43:00;19.25;;;17.25;;
8040;SDS011;4063;48.140;10.250;2023-05-14T08:45:28;18.73;;;17.00;;
8040;SDS011;4063;48.140;10.250;2023-05-14T08:47:57;19.35;;;17.17;;
8040;SDS011;4063;48.140;10.250;2023-05-14T08:50:24;19.00;;;16.55;;
8040;SDS011;4063;48.140;10.250;2023-05-14T08:52:51;17.75;;;15.98;;
8040;SDS011;4063;48.140;10.250;2023-05-14T08:55:17;18.40;;;16.50;;
8040;SDS011;4063;48.140;10.250;2023-05-14T08:57:44;17.48;;;15.60;;
8040;SDS011;4063;48.140;10.250;2023-05-14T09:00:10;21.13;;;16.13;;
8040;SDS011;4063;48.140;10.250;2023-05-14T09:02:38;19.23;;;16.30;;
8040;SDS011;4063;48.140;10.250;2023-05-14T09:05:04;16.98;;;15.27;;
8040;SDS011;4063;48.140;10.250;2023-05-14T09:07:31;18.02;;;16.08;;
8040;SDS011;4063;48.140;10.250;2023-05-14T09:09:57;17.63;;;15.75;;
8040;SDS011;4063;48.140;10.250;2023-05-14T09:12:23;17.55;;;15.70;;
8040;SDS011;4063;48.140;10.250;2023-05-14T09:14:49;17.77;;;16.00;;
8040;SDS011;4063;48.140;10.250;2023-05-14T09:17:16;19.13;;;15.77;;
8040;SDS011;4063;48.140;10.250;2023-05-14T09:19:42;17.38;;;15.50;;
8040;SDS011;4063;48.140;10.250;2023-05-14T09:22:10;16.42;;;14.55;;
8040;SDS011;4063;48.140;10.250;2023-05-14T09:24:37;17.65;;;15.85;;
8040;SDS011;4063;48.140;10.250;2023-05-14T09:27:03;19.23;;;15.60;;
8040;SDS011;4063;48.140;10.250;2023-05-14T09:29:30;16.33;;;14.23;;
8040;SDS011;4063;48.140;10.250;2023-05-14T09:31:56;15.35;;;13.68;;
8040;SDS011;4063;48.140;10.250;2023-05-14T09:34:33;15.88;;;14.27;;
8040;SDS011;4063;48.140;10.250;2023-05-14T09:37:02;15.48;;;13.82;;
8040;SDS011;4063;48.140;10.250;2023-05-14T09:39:29;16.13;;;13.95;;
8040;SDS011;4063;48.140;10.250;2023-05-14T09:41:55;14.18;;;12.70;;
8040;SDS011;4063;48.140;10.250;2023-05-14T09:44:21;14.95;;;13.45;;
8040;SDS011;4063;48.140;10.250;2023-05-14T09:46:48;15.02;;;12.65;;
8040;SDS011;4063;48.140;10.250;2023-05-14T09:49:14;16.38;;;13.18;;
8040;SDS011;4063;48.140;10.250;2023-05-14T09:51:40;17.70;;;13.23;;
8040;SDS011;4063;48.140;10.250;2023-05-14T09:54:06;15.98;;;13.40;;
8040;SDS011;4063;48.140;10.250;2023-05-14T09:56:33;15.75;;;14.02;;
8040;SDS011;4063;48.140;10.250;2023-05-14T09:58:59;14.32;;;12.82;;
8040;SDS011;4063;48.140;10.250;2023-05-14T10:01:25;14.85;;;13.32;;
8040;SDS011;4063;48.140;10.250;2023-05-14T10:03:52;13.23;;;11.82;;
8040;SDS011;4063;48.140;10.250;2023-05-14T10:06:18;12.98;;;11.68;;
8040;SDS011;4063;48.140;10.250;2023-05-14T10:08:47;11.60;;;10.40;;
8040;SDS011;4063;48.140;10.250;2023-05-14T10:11:15;12.40;;;11.10;;
8040;SDS011;4063;48.140;10.250;2023-05-14T10:13:48;10.82;;;9.85;;
8040;SDS011;4063;48.140;10.250;2023-05-14T10:16:21;11.93;;;9.73;;
8040;SDS011;4063;48.140;10.250;2023-05-14T10:18:51;11.00;;;9.75;;
8040;SDS011;4063;48.140;10.250;2023-05-14T10:21:19;10.88;;;9.85;;
8040;SDS011;4063;48.140;10.250;2023-05-14T10:23:45;13.63;;;12.23;;
8040;SDS011;4063;48.140;10.250;2023-05-14T10:26:12;10.35;;;9.35;;
8040;SDS011;4063;48.140;10.250;2023-05-14T10:28:38;9.80;;;8.80;;
8040;SDS011;4063;48.140;10.250;2023-05-14T10:31:04;10.32;;;9.27;;
8040;SDS011;4063;48.140;10.250;2023-05-14T10:33:44;10.15;;;9.18;;
8040;SDS011;4063;48.140;10.250;2023-05-14T10:36:11;11.00;;;9.45;;
8040;SDS011;4063;48.140;10.250;2023-05-14T10:38:37;10.77;;;9.68;;
8040;SDS011;4063;48.140;10.250;2023-05-14T10:41:03;9.98;;;9.05;;
8040;SDS011;4063;48.140;10.250;2023-05-14T10:43:30;9.68;;;8.77;;
8040;SDS011;4063;48.140;10.250;2023-05-14T10:45:58;8.80;;;7.88;;
8040;SDS011;4063;48.140;10.250;2023-05-14T10:48:24;10.07;;;8.35;;
8040;SDS011;4063;48.140;10.250;2023-05-14T10:50:51;9.70;;;8.80;;
8040;SDS011;4063;48.140;10.250;2023-05-14T10:53:17;9.25;;;7.93;;
8040;SDS011;4063;48.140;10.250;2023-05-14T10:55:43;9.57;;;8.57;;
8040;SDS011;4063;48.140;10.250;2023-05-14T10:58:10;9.27;;;8.10;;
8040;SDS011;4063;48.140;10.250;2023-05-14T11:00:36;13.60;;;8.48;;
8040;SDS011;4063;48.140;10.250;2023-05-14T11:03:03;9.00;;;7.97;;
8040;SDS011;4063;48.140;10.250;2023-05-14T11:05:29;8.70;;;7.70;;
8040;SDS011;4063;48.140;10.250;2023-05-14T11:07:56;8.00;;;7.25;;
8040;SDS011;4063;48.140;10.250;2023-05-14T11:10:22;7.50;;;6.80;;
8040;SDS011;4063;48.140;10.250;2023-05-14T11:12:53;8.27;;;6.90;;
8040;SDS011;4063;48.140;10.250;2023-05-14T11:15:21;6.75;;;6.18;;
8040;SDS011;4063;48.140;10.250;2023-05-14T11:17:48;6.82;;;5.90;;
8040;SDS011;4063;48.140;10.250;2023-05-14T11:20:15;6.18;;;5.65;;
8040;SDS011;4063;48.140;10.250;2023-05-14T11:22:41;6.50;;;4.75;;
8040;SDS011;4063;48.140;10.250;2023-05-14T11:25:08;5.28;;;4.78;;
8040;SDS011;4063;48.140;10.250;2023-05-14T11:27:35;5.75;;;5.18;;
8040;SDS011;4063;48.140;10.250;2023-05-14T11:30:02;6.60;;;5.03;;
8040;SDS011;4063;48.140;10.250;2023-05-14T11:32:28;5.40;;;4.60;;
8040;SDS011;4063;48.140;10.250;2023-05-14T11:34:54;5.70;;;5.10;;
8040;SDS011;4063;48.140;10.250;2023-05-14T11:37:20;5.78;;;5.28;;
8040;SDS011;4063;48.140;10.250;2023-05-14T11:39:46;5.60;;;5.10;;
8040;SDS011;4063;48.140;10.250;2023-05-14T11:42:13;6.15;;;5.65;;
8040;SDS011;4063;48.140;10.250;2023-05-14T11:44:41;5.70;;;5.20;;
8040;SDS011;4063;48.140;10.250;2023-05-14T11:47:10;5.80;;;5.30;;
8040;SDS011;4063;48.140;10.250;2023-05-14T11:49:37;6.43;;;5.50;;
8040;SDS011;4063;48.140;10.250;2023-05-14T11:52:04;8.75;;;7.05;;
8040;SDS011;4063;48.140;10.250;2023-05-14T11:54:31;6.13;;;5.63;;
8040;SDS011;4063;48.140;10.250;2023-05-14T11:56:57;6.38;;;5.78;;
8040;SDS011;4063;48.140;10.250;2023-05-14T11:59:25;6.55;;;5.85;;
8040;SDS011;4063;48.140;10.250;2023-05-14T12:01:52;9.90;;;9.00;;
8040;SDS011;4063;48.140;10.250;2023-05-14T12:04:18;5.90;;;5.40;;
8040;SDS011;4063;48.140;10.250;2023-05-14T12:06:50;6.07;;;5.15;;
8040;SDS011;4063;48.140;10.250;2023-05-14T12:09:17;5.25;;;4.85;;
8040;SDS011;4063;48.140;10.250;2023-05-14T12:11:47;6.47;;;5.55;;
8040;SDS011;4063;48.140;10.250;2023-05-14T12:14:15;5.10;;;4.70;;
8040;SDS011;4063;48.140;10.250;2023-05-14T12:16:42;4.80;;;4.40;;
8040;SDS011;4063;48.140;10.250;2023-05-14T12:19:09;7.10;;;4.63;;
8040;SDS011;4063;48.140;10.250;2023-05-14T12:21:35;5.00;;;4.60;;
8040;SDS011;4063;48.140;10.250;2023-05-14T12:24:03;5.13;;;4.63;;
8040;SDS011;4063;48.140;10.250;2023-05-14T12:26:32;4.47;;;4.07;;
8040;SDS011;4063;48.140;10.250;2023-05-14T12:28:58;5.20;;;4.70;;
8040;SDS011;4063;48.140;10.250;2023-05-14T12:31:28;4.50;;;4.10;;
8040;SDS011;4063;48.140;10.250;2023-05-14T12:33:54;4.50;;;4.10;;
8040;SDS011;4063;48.140;10.250;2023-05-14T12:36:20;3.72;;;3.42;;
8040;SDS011;4063;48.140;10.250;2023-05-14T12:38:47;3.35;;;3.10;;
8040;SDS011;4063;48.140;10.250;2023-05-14T12:41:13;3.72;;;3.38;;
8040;SDS011;4063;48.140;10.250;2023-05-14T12:43:41;3.10;;;2.90;;
8040;SDS011;4063;48.140;10.250;2023-05-14T12:46:07;3.53;;;3.20;;
8040;SDS011;4063;48.140;10.250;2023-05-14T12:48:33;4.57;;;3.25;;
8040;SDS011;4063;48.140;10.250;2023-05-14T12:50:59;3.67;;;3.40;;
8040;SDS011;4063;48.140;10.250;2023-05-14T12:53:25;3.03;;;2.75;;
8040;SDS011;4063;48.140;10.250;2023-05-14T12:55:51;3.50;;;3.20;;
8040;SDS011;4063;48.140;10.250;2023-05-14T12:58:17;4.65;;;3.05;;
8040;SDS011;4063;48.140;10.250;2023-05-14T13:00:43;3.00;;;2.70;;
8040;SDS011;4063;48.140;10.250;2023-05-14T13:03:09;2.70;;;2.50;;
8040;SDS011;4063;48.140;10.250;2023-05-14T13:05:35;2.60;;;2.40;;
8040;SDS011;4063;48.140;10.250;2023-05-14T13:08:01;2.88;;;2.60;;
8040;SDS011;4063;48.140;10.250;2023-05-14T13:10:27;3.55;;;2.42;;
8040;SDS011;4063;48.140;10.250;2023-05-14T13:12:54;3.08;;;2.88;;
8040;SDS011;4063;48.140;10.250;2023-05-14T13:15:20;3.83;;;3.25;;
8040;SDS011;4063;48.140;10.250;2023-05-14T13:17:47;4.13;;;2.58;;
8040;SDS011;4063;48.140;10.250;2023-05-14T13:20:13;3.42;;;3.10;;
8040;SDS011;4063;48.140;10.250;2023-05-14T13:22:39;4.63;;;3.03;;
8040;SDS011;4063;48.140;10.250;2023-05-14T13:25:05;3.35;;;3.00;;
8040;SDS011;4063;48.140;10.250;2023-05-14T13:27:31;3.50;;;3.20;;
8040;SDS011;4063;48.140;10.250;2023-05-14T13:29:59;3.47;;;3.00;;
8040;SDS011;4063;48.140;10.250;2023-05-14T13:32:26;3.67;;;3.30;;
8040;SDS011;4063;48.140;10.250;2023-05-14T13:34:52;3.83;;;3.50;;
8040;SDS011;4063;48.140;10.250;2023-05-14T13:37:18;4.05;;;3.65;;
8040;SDS011;4063;48.140;10.250;2023-05-14T13:39:44;4.45;;;3.53;;
8040;SDS011;4063;48.140;10.250;2023-05-14T13:42:10;3.75;;;3.45;;
8040;SDS011;4063;48.140;10.250;2023-05-14T13:44:36;3.42;;;3.13;;
8040;SDS011;4063;48.140;10.250;2023-05-14T13:47:02;3.00;;;2.80;;
8040;SDS011;4063;48.140;10.250;2023-05-14T13:49:28;3.53;;;3.20;;
8040;SDS011;4063;48.140;10.250;2023-05-14T13:51:54;3.50;;;3.20;;
8040;SDS011;4063;48.140;10.250;2023-05-14T13:54:20;6.25;;;5.65;;
8040;SDS011;4063;48.140;10.250;2023-05-14T13:56:46;3.55;;;3.25;;
8040;SDS011;4063;48.140;10.250;2023-05-14T13:59:12;3.28;;;3.00;;
8040;SDS011;4063;48.140;10.250;2023-05-14T14:01:39;4.50;;;3.03;;
8040;SDS011;4063;48.140;10.250;2023-05-14T14:04:07;3.35;;;3.05;;
8040;SDS011;4063;48.140;10.250;2023-05-14T14:06:33;3.30;;;3.10;;
8040;SDS011;4063;48.140;10.250;2023-05-14T14:08:59;3.13;;;2.90;;
8040;SDS011;4063;48.140;10.250;2023-05-14T14:11:25;3.30;;;3.03;;
8040;SDS011;4063;48.140;10.250;2023-05-14T14:13:52;3.20;;;2.90;;
8040;SDS011;4063;48.140;10.250;2023-05-14T14:16:18;3.28;;;2.97;;
8040;SDS011;4063;48.140;10.250;2023-05-14T14:18:44;3.10;;;2.90;;
8040;SDS011;4063;48.140;10.250;2023-05-14T14:21:10;3.38;;;3.08;;
8040;SDS011;4063;48.140;10.250;2023-05-14T14:23:36;3.40;;;3.10;;
8040;SDS011;4063;48.140;10.250;2023-05-14T14:26:02;3.78;;;2.90;;
8040;SDS011;4063;48.140;10.250;2023-05-14T14:28:28;3.35;;;3.05;;
8040;SDS011;4063;48.140;10.250;2023-05-14T14:30:54;3.45;;;3.22;;
8040;SDS011;4063;48.140;10.250;2023-05-14T14:33:20;4.38;;;3.97;;
8040;SDS011;4063;48.140;10.250;2023-05-14T14:35:46;6.53;;;5.13;;
8040;SDS011;4063;48.140;10.250;2023-05-14T14:38:12;4.57;;;4.18;;
8040;SDS011;4063;48.140;10.250;2023-05-14T14:40:38;4.70;;;3.58;;
8040;SDS011;4063;48.140;10.250;2023-05-14T14:43:05;3.92;;;3.53;;
8040;SDS011;4063;48.140;10.250;2023-05-14T14:45:31;4.57;;;4.20;;